createdAt,value
2018-06-10T00:00:57.993Z,39.03
2018-06-10T00:03:26.311Z,41.90
2018-06-10T00:05:54.644Z,36.93
2018-06-10T00:08:22.968Z,39.42
2018-06-10T00:10:51.297Z,41.10
2018-06-10T00:13:19.634Z,39.83
2018-06-10T00:15:47.965Z,47.23
2018-06-10T00:18:16.293Z,43.85
2018-06-10T00:20:44.351Z,55.48
2018-06-10T00:23:12.669Z,42.40
2018-06-10T00:25:40.993Z,40.08
2018-06-10T00:28:09.821Z,36.98
2018-06-10T00:30:37.871Z,46.95
2018-06-10T00:33:06.189Z,46.68
2018-06-10T00:35:34.635Z,44.67
2018-06-10T00:38:02.956Z,47.13
2018-06-10T00:40:31.293Z,41.55
2018-06-10T00:42:59.600Z,46.13
2018-06-10T00:45:27.933Z,43.50
2018-06-10T00:47:56.265Z,43.98
2018-06-10T00:50:24.676Z,47.30
2018-06-10T00:52:53.009Z,43.48
2018-06-10T00:55:21.328Z,39.98
2018-06-10T00:57:49.657Z,47.25
2018-06-10T01:00:17.962Z,45.35
2018-06-10T01:02:46.296Z,44.80
2018-06-10T01:05:14.608Z,53.23
2018-06-10T01:07:42.949Z,46.63
2018-06-10T01:10:11.260Z,48.80
2018-06-10T01:12:39.609Z,42.08
2018-06-10T01:15:07.924Z,49.20
2018-06-10T01:17:36.264Z,44.40
2018-06-10T01:20:04.680Z,42.05
2018-06-10T01:22:32.999Z,42.80
2018-06-10T01:25:07.394Z,45.95
2018-06-10T01:27:35.722Z,46.75
2018-06-10T01:30:04.066Z,41.00
2018-06-10T01:32:32.393Z,44.77
2018-06-10T01:35:00.437Z,53.52
2018-06-10T01:37:28.765Z,44.85
2018-06-10T01:39:57.100Z,49.15
2018-06-10T01:42:25.430Z,45.12
2018-06-10T01:44:53.824Z,39.35
2018-06-10T01:47:22.436Z,43.17
2018-06-10T01:49:50.752Z,43.87
2018-06-10T01:52:19.087Z,47.48
2018-06-10T01:54:47.409Z,41.92
2018-06-10T01:57:15.468Z,39.70
2018-06-10T01:59:43.772Z,39.33
2018-06-10T02:02:12.093Z,41.20
2018-06-10T02:04:40.408Z,38.50
2018-06-10T02:07:08.733Z,39.78
2018-06-10T02:09:37.047Z,44.65
2018-06-10T02:12:05.442Z,49.53
2018-06-10T02:14:33.773Z,43.98
2018-06-10T02:17:02.165Z,44.10
2018-06-10T02:19:30.497Z,54.08
2018-06-10T02:21:58.805Z,42.03
2018-06-10T02:24:27.145Z,45.73
2018-06-10T02:26:55.225Z,42.67
2018-06-10T02:29:23.549Z,46.88
2018-06-10T02:31:51.865Z,48.30
2018-06-10T02:34:20.181Z,48.73
2018-06-10T02:36:48.493Z,45.17
2018-06-10T02:39:16.809Z,47.03
2018-06-10T02:41:45.151Z,47.58
2018-06-10T02:44:13.473Z,44.67
2018-06-10T02:46:41.793Z,37.45
2018-06-10T02:49:10.168Z,42.43
2018-06-10T02:51:38.481Z,54.60
2018-06-10T02:54:06.827Z,48.87
2018-06-10T02:56:35.159Z,57.90
2018-06-10T02:59:03.498Z,59.33
2018-06-10T03:01:32.229Z,53.95
2018-06-10T03:04:01.040Z,62.62
2018-06-10T03:06:29.401Z,55.60
2018-06-10T03:08:57.757Z,50.80
2018-06-10T03:11:26.078Z,41.13
2018-06-10T03:13:54.429Z,42.62
2018-06-10T03:16:22.741Z,42.73
2018-06-10T03:18:51.066Z,42.20
2018-06-10T03:21:19.405Z,44.53
2018-06-10T03:23:47.730Z,37.88
2018-06-10T03:26:16.056Z,46.42
2018-06-10T03:28:44.442Z,50.30
2018-06-10T03:31:12.769Z,48.58
2018-06-10T03:33:41.082Z,48.17
2018-06-10T03:36:09.127Z,47.30
2018-06-10T03:38:37.436Z,56.25
2018-06-10T03:41:05.781Z,53.65
2018-06-10T03:43:34.085Z,56.58
2018-06-10T03:46:02.413Z,53.30
2018-06-10T03:48:30.717Z,62.83
2018-06-10T03:50:59.045Z,46.20
2018-06-10T03:53:27.353Z,55.73
2018-06-10T03:55:55.704Z,57.43
2018-06-10T03:58:24.025Z,55.50
2018-06-10T04:00:52.358Z,46.88
2018-06-10T04:03:20.678Z,42.83
2018-06-10T04:05:49.022Z,42.65
2018-06-10T04:08:17.336Z,44.58
2018-06-10T04:10:45.661Z,58.42
2018-06-10T04:13:14.037Z,45.75
2018-06-10T04:15:42.372Z,57.70
2018-06-10T04:18:10.732Z,52.17
2018-06-10T04:20:39.057Z,61.85
2018-06-10T04:23:07.402Z,55.65
2018-06-10T04:25:35.741Z,56.28
2018-06-10T04:28:04.093Z,56.33
2018-06-10T04:30:32.421Z,61.02
2018-06-10T04:33:00.758Z,57.60
2018-06-10T04:35:29.098Z,57.20
2018-06-10T04:37:57.453Z,58.68
2018-06-10T04:40:25.799Z,55.50
2018-06-10T04:42:54.144Z,63.52
2018-06-10T04:45:22.472Z,57.50
2018-06-10T04:47:50.844Z,45.12
2018-06-10T04:50:19.217Z,60.28
2018-06-10T04:52:47.681Z,47.03
2018-06-10T04:55:16.004Z,53.92
2018-06-10T04:57:44.359Z,55.12
2018-06-10T05:00:12.688Z,52.08
2018-06-10T05:02:41.029Z,51.02
2018-06-10T05:05:09.366Z,54.48
2018-06-10T05:07:37.709Z,51.75
2018-06-10T05:10:06.046Z,47.40
2018-06-10T05:12:34.394Z,43.68
2018-06-10T05:15:02.709Z,49.98
2018-06-10T05:17:31.024Z,50.28
2018-06-10T05:19:59.361Z,47.33
2018-06-10T05:22:27.725Z,43.45
2018-06-10T05:24:56.058Z,43.80
2018-06-10T05:27:24.397Z,39.27
2018-06-10T05:29:52.721Z,45.23
2018-06-10T05:32:21.176Z,42.20
2018-06-10T05:34:49.502Z,50.25
2018-06-10T05:37:17.826Z,41.13
2018-06-10T05:39:46.156Z,39.20
2018-06-10T05:42:14.477Z,38.48
2018-06-10T05:44:42.809Z,36.53
2018-06-10T05:47:11.122Z,43.38
2018-06-10T05:49:39.461Z,36.20
2018-06-10T05:52:07.769Z,38.98
2018-06-10T05:54:36.100Z,37.00
2018-06-10T05:57:04.464Z,40.05
2018-06-10T05:59:32.788Z,40.33
2018-06-10T06:02:01.108Z,35.90
2018-06-10T06:04:29.442Z,32.85
2018-06-10T06:06:57.779Z,35.92
2018-06-10T06:09:26.496Z,30.72
2018-06-10T06:11:54.805Z,30.72
2018-06-10T06:14:23.238Z,33.78
2018-06-10T06:16:51.560Z,33.65
2018-06-10T06:19:19.898Z,41.92
2018-06-10T06:21:48.232Z,40.90
2018-06-10T06:24:16.576Z,36.08
2018-06-10T06:26:44.914Z,31.05
2018-06-10T06:29:13.321Z,31.95
2018-06-10T06:31:41.660Z,27.70
2018-06-10T06:34:10.081Z,22.30
2018-06-10T06:36:38.414Z,24.13
2018-06-10T06:39:07.771Z,24.07
2018-06-10T06:41:36.117Z,22.97
2018-06-10T06:44:04.444Z,23.50
2018-06-10T06:46:32.786Z,27.90
2018-06-10T06:49:01.142Z,24.80
2018-06-10T06:51:29.495Z,20.83
2018-06-10T06:53:57.817Z,29.13
2018-06-10T06:56:26.189Z,31.30
2018-06-10T06:58:54.587Z,23.37
2018-06-10T07:01:22.947Z,24.07
2018-06-10T07:03:51.270Z,27.57
2018-06-10T07:06:19.615Z,22.20
2018-06-10T07:08:47.945Z,24.13
2018-06-10T07:11:16.297Z,26.73
2018-06-10T07:13:44.634Z,33.00
2018-06-10T07:16:12.978Z,29.93
2018-06-10T07:18:41.289Z,33.33
2018-06-10T07:21:09.624Z,29.33
2018-06-10T07:23:37.991Z,27.03
2018-06-10T07:26:06.318Z,31.97
2018-06-10T07:28:34.649Z,32.23
2018-06-10T07:31:02.988Z,34.10
2018-06-10T07:33:31.319Z,32.63
2018-06-10T07:35:59.636Z,36.23
2018-06-10T07:38:27.953Z,31.23
2018-06-10T07:40:56.305Z,33.60
2018-06-10T07:43:24.634Z,33.07
2018-06-10T07:45:52.953Z,30.63
2018-06-10T07:48:21.340Z,31.70
2018-06-10T07:50:49.617Z,33.63
2018-06-10T07:53:17.936Z,33.83
2018-06-10T07:55:46.245Z,36.33
2018-06-10T07:58:14.567Z,41.63
2018-06-10T08:00:42.952Z,36.23
2018-06-10T08:03:11.401Z,36.60
2018-06-10T08:05:39.723Z,31.13
2018-06-10T08:08:08.052Z,32.83
2018-06-10T08:10:36.366Z,25.73
2018-06-10T08:13:04.736Z,24.53
2018-06-10T08:15:32.802Z,24.40
2018-06-10T08:18:01.161Z,24.87
2018-06-10T08:20:29.477Z,26.87
2018-06-10T08:22:57.837Z,21.33
2018-06-10T08:25:26.212Z,22.00
2018-06-10T08:27:54.677Z,18.70
2018-06-10T08:30:23.004Z,19.40
2018-06-10T08:32:51.343Z,19.37
2018-06-10T08:35:19.664Z,20.77
2018-06-10T08:37:48.014Z,23.20
2018-06-10T08:40:16.357Z,20.70
2018-06-10T08:42:44.702Z,22.27
2018-06-10T08:45:13.043Z,21.13
2018-06-10T08:47:41.576Z,19.83
2018-06-10T08:50:09.900Z,26.47
2018-06-10T08:52:38.397Z,20.83
2018-06-10T08:55:06.772Z,16.87
2018-06-10T08:57:35.261Z,21.20
2018-06-10T09:00:03.894Z,19.30
2018-06-10T09:02:32.617Z,19.67
2018-06-10T09:05:01.058Z,19.90
2018-06-10T09:07:29.782Z,22.73
2018-06-10T09:09:59.881Z,18.57
2018-06-10T09:12:28.228Z,18.73
2018-06-10T09:14:56.840Z,21.83
2018-06-10T09:17:25.183Z,18.97
2018-06-10T09:19:53.525Z,14.60
2018-06-10T09:22:22.047Z,17.40
2018-06-10T09:24:51.179Z,21.67
2018-06-10T09:27:19.513Z,16.93
2018-06-10T09:29:48.178Z,17.60
2018-06-10T09:32:16.620Z,21.90
2018-06-10T09:34:44.990Z,27.03
2018-06-10T09:37:13.337Z,28.83
2018-06-10T09:39:41.882Z,26.63
2018-06-10T09:42:10.577Z,25.07
2018-06-10T09:44:38.942Z,25.80
2018-06-10T09:47:07.277Z,28.20
2018-06-10T09:49:36.024Z,18.03
2018-06-10T09:52:04.432Z,25.37
2018-06-10T09:54:32.817Z,25.57
2018-06-10T09:57:01.323Z,20.73
2018-06-10T09:59:29.774Z,23.00
2018-06-10T10:01:58.137Z,20.63
2018-06-10T10:04:26.473Z,29.33
2018-06-10T10:06:55.202Z,20.20
2018-06-10T10:09:23.997Z,22.83
2018-06-10T10:11:52.645Z,29.50
2018-06-10T10:14:21.268Z,24.70
2018-06-10T10:16:50.018Z,29.93
2018-06-10T10:19:25.049Z,86.40
2018-06-10T10:21:54.012Z,28.80
2018-06-10T10:24:22.605Z,25.00
2018-06-10T10:26:51.165Z,39.47
2018-06-10T10:29:19.832Z,27.77
2018-06-10T10:31:48.427Z,24.37
2018-06-10T10:34:17.112Z,18.57
2018-06-10T10:36:45.867Z,21.53
2018-06-10T10:39:14.567Z,24.90
2018-06-10T10:41:43.235Z,22.33
2018-06-10T10:44:11.963Z,23.23
2018-06-10T10:46:40.310Z,25.23
2018-06-10T10:49:08.641Z,26.07
2018-06-10T10:51:36.977Z,23.80
2018-06-10T10:54:05.500Z,21.80
2018-06-10T10:56:34.269Z,24.97
2018-06-10T10:59:02.614Z,28.33
2018-06-10T11:01:30.965Z,22.10
2018-06-10T11:03:59.430Z,25.83
2018-06-10T11:06:27.789Z,19.27
2018-06-10T11:08:56.232Z,26.30
2018-06-10T11:11:24.609Z,26.73
2018-06-10T11:13:52.962Z,22.53
2018-06-10T11:16:21.320Z,25.13
2018-06-10T11:18:49.649Z,20.53
2018-06-10T11:21:18.013Z,24.53
2018-06-10T11:23:46.328Z,22.43
2018-06-10T11:26:14.693Z,18.93
2018-06-10T11:28:43.060Z,25.43
2018-06-10T11:31:11.422Z,19.90
2018-06-10T11:33:39.769Z,19.30
2018-06-10T11:36:08.133Z,21.70
2018-06-10T11:38:36.477Z,19.70
2018-06-10T11:41:04.821Z,15.23
2018-06-10T11:43:33.149Z,31.67
2018-06-10T11:46:01.493Z,19.10
2018-06-10T11:48:29.854Z,16.60
2018-06-10T11:50:58.215Z,19.43
2018-06-10T11:53:26.558Z,19.27
2018-06-10T11:55:54.889Z,22.27
2018-06-10T11:58:23.257Z,22.30
2018-06-10T12:00:51.592Z,20.47
2018-06-10T12:03:20.101Z,21.67
2018-06-10T12:05:48.430Z,20.60
2018-06-10T12:08:16.792Z,20.23
2018-06-10T12:10:45.165Z,22.17
2018-06-10T12:13:13.513Z,16.30
2018-06-10T12:15:41.826Z,19.50
2018-06-10T12:18:10.221Z,18.97
2018-06-10T12:20:38.592Z,21.50
2018-06-10T12:23:06.933Z,17.70
2018-06-10T12:25:35.245Z,19.50
2018-06-10T12:28:03.789Z,17.77
2018-06-10T12:30:32.120Z,20.00
2018-06-10T12:33:00.465Z,20.63
2018-06-10T12:35:28.780Z,19.47
2018-06-10T12:37:57.122Z,17.57
2018-06-10T12:40:25.452Z,16.73
2018-06-10T12:42:53.780Z,24.53
2018-06-10T12:45:22.100Z,19.07
2018-06-10T12:47:57.041Z,19.87
2018-06-10T12:50:25.418Z,22.80
2018-06-10T12:52:53.752Z,16.97
2018-06-10T12:55:22.077Z,19.27
2018-06-10T12:57:50.438Z,17.23
2018-06-10T13:00:18.776Z,20.20
2018-06-10T13:02:47.117Z,23.60
2018-06-10T13:05:15.489Z,21.17
2018-06-10T13:07:43.836Z,17.23
2018-06-10T13:10:12.149Z,18.60
2018-06-10T13:12:40.528Z,15.60
2018-06-10T13:15:08.873Z,18.37
2018-06-10T13:17:37.212Z,16.70
2018-06-10T13:20:05.580Z,19.67
2018-06-10T13:22:33.896Z,18.00
2018-06-10T13:25:02.228Z,18.57
2018-06-10T13:27:30.560Z,17.43
2018-06-10T13:29:58.913Z,19.43
2018-06-10T13:32:27.241Z,17.27
2018-06-10T13:34:55.584Z,15.77
2018-06-10T13:37:23.893Z,15.00
2018-06-10T13:39:52.229Z,14.40
2018-06-10T13:42:20.562Z,14.33
2018-06-10T13:44:48.921Z,15.20
2018-06-10T13:47:17.247Z,15.87
2018-06-10T13:49:45.600Z,18.17
2018-06-10T13:52:14.107Z,14.80
2018-06-10T13:54:42.757Z,16.83
2018-06-10T13:57:11.445Z,17.87
2018-06-10T13:59:39.928Z,17.57
2018-06-10T14:02:08.617Z,14.90
2018-06-10T14:04:37.197Z,15.03
2018-06-10T14:07:05.549Z,15.00
2018-06-10T14:09:33.995Z,16.87
2018-06-10T14:12:02.583Z,16.53
2018-06-10T14:14:31.271Z,13.20
2018-06-10T14:16:59.749Z,15.00
2018-06-10T14:19:28.350Z,13.77
2018-06-10T14:21:56.894Z,13.33
2018-06-10T14:24:25.470Z,14.40
2018-06-10T14:26:53.884Z,18.90
2018-06-10T14:29:22.390Z,17.57
2018-06-10T14:31:50.925Z,12.50
2018-06-10T14:34:19.397Z,14.50
2018-06-10T14:36:48.018Z,12.07
2018-06-10T14:39:16.556Z,14.00
2018-06-10T14:41:44.996Z,14.70
2018-06-10T14:44:13.435Z,13.23
2018-06-10T14:46:41.814Z,13.20
2018-06-10T14:49:10.148Z,14.60
2018-06-10T14:51:38.231Z,16.60
2018-06-10T14:54:06.553Z,15.07
2018-06-10T14:56:34.897Z,14.40
2018-06-10T14:59:03.245Z,14.70
2018-06-10T15:04:05.338Z,20.40
2018-06-10T15:06:33.699Z,13.70
2018-06-10T15:09:02.040Z,15.60
2018-06-10T15:11:30.393Z,13.17
2018-06-10T15:13:58.838Z,14.20
2018-06-10T15:16:27.185Z,12.40
2018-06-10T15:18:55.961Z,22.30
2018-06-10T15:21:24.471Z,14.33
2018-06-10T15:23:52.849Z,16.50
2018-06-10T15:26:21.229Z,14.77
2018-06-10T15:28:49.576Z,14.23
2018-06-10T15:31:17.924Z,14.87
2018-06-10T15:33:46.256Z,14.83
2018-06-10T15:36:14.592Z,14.03
2018-06-10T15:38:42.917Z,13.53
2018-06-10T15:41:11.274Z,14.27
2018-06-10T15:43:39.610Z,13.20
2018-06-10T15:46:07.973Z,12.63
2018-06-10T15:48:36.312Z,11.70
2018-06-10T15:51:04.655Z,14.13
2018-06-10T15:53:33.018Z,11.27
2018-06-10T15:56:01.357Z,11.00
2018-06-10T15:58:29.685Z,10.90
2018-06-10T16:00:58.045Z,9.20
2018-06-10T16:03:26.365Z,8.20
2018-06-10T16:05:54.704Z,14.93
2018-06-10T16:08:23.050Z,8.23
2018-06-10T16:10:51.390Z,9.97
2018-06-10T16:13:19.744Z,11.97
2018-06-10T16:15:48.073Z,7.07
2018-06-10T16:18:16.497Z,10.53
2018-06-10T16:20:44.824Z,7.73
2018-06-10T16:23:13.148Z,11.50
2018-06-10T16:25:41.472Z,9.60
2018-06-10T16:28:10.177Z,9.50
2018-06-10T16:30:38.216Z,11.63
2018-06-10T16:33:06.560Z,9.33
2018-06-10T16:35:35.012Z,7.90
2018-06-10T16:38:03.405Z,9.50
2018-06-10T16:40:31.721Z,6.20
2018-06-10T16:43:00.276Z,7.87
2018-06-10T16:45:28.596Z,6.83
2018-06-10T16:47:56.926Z,7.03
2018-06-10T16:50:25.269Z,6.87
2018-06-10T16:52:53.348Z,10.00
2018-06-10T16:55:21.681Z,8.43
2018-06-10T16:57:50.009Z,9.23
2018-06-10T17:00:18.320Z,8.43
2018-06-10T17:02:46.705Z,9.47
2018-06-10T17:05:15.020Z,10.17
2018-06-10T17:07:43.410Z,8.10
2018-06-10T17:10:11.793Z,7.53
2018-06-10T17:12:40.139Z,8.23
2018-06-10T17:15:08.543Z,13.87
2018-06-10T17:17:36.883Z,9.77
2018-06-10T17:20:05.340Z,6.70
2018-06-10T17:22:33.682Z,9.37
2018-06-10T17:25:02.066Z,7.03
2018-06-10T17:27:30.554Z,7.00
2018-06-10T17:29:58.881Z,6.37
2018-06-10T17:32:27.256Z,5.30
2018-06-10T17:34:55.589Z,8.57
2018-06-10T17:37:23.901Z,4.57
2018-06-10T17:39:52.231Z,4.73
2018-06-10T17:42:20.536Z,5.67
2018-06-10T17:44:48.864Z,7.00
2018-06-10T17:47:17.181Z,8.13
2018-06-10T17:49:46.274Z,9.70
2018-06-10T17:52:14.617Z,7.20
2018-06-10T17:54:42.948Z,7.20
2018-06-10T17:57:11.277Z,10.20
2018-06-10T17:59:39.610Z,9.00
2018-06-10T18:02:09.704Z,8.40
2018-06-10T18:04:38.104Z,8.30
2018-06-10T18:07:06.430Z,9.17
2018-06-10T18:09:34.756Z,7.90
2018-06-10T18:12:03.077Z,9.83
2018-06-10T18:14:31.420Z,7.00
2018-06-10T18:16:59.745Z,8.80
2018-06-10T18:19:28.089Z,8.17
2018-06-10T18:21:56.392Z,8.83
2018-06-10T18:24:24.741Z,7.40
2018-06-10T18:26:53.046Z,7.43
2018-06-10T18:29:21.362Z,8.40
2018-06-10T18:31:49.894Z,6.90
2018-06-10T18:34:18.173Z,6.00
2018-06-10T18:36:46.609Z,8.23
2018-06-10T18:39:14.929Z,8.53
2018-06-10T18:41:43.282Z,8.90
2018-06-10T18:44:11.596Z,8.07
2018-06-10T18:46:39.937Z,14.90
2018-06-10T18:49:08.296Z,5.53
2018-06-10T18:51:36.624Z,9.30
2018-06-10T18:54:04.957Z,7.80
2018-06-10T18:56:33.300Z,7.80
2018-06-10T18:59:01.622Z,7.03
2018-06-10T19:01:29.947Z,6.53
2018-06-10T19:03:58.266Z,12.07
2018-06-10T19:06:26.608Z,10.60
2018-06-10T19:08:54.928Z,9.23
2018-06-10T19:11:23.257Z,15.17
2018-06-10T19:13:51.597Z,8.00
2018-06-10T19:16:19.933Z,6.07
2018-06-10T19:18:48.260Z,7.27
2018-06-10T19:21:16.630Z,6.80
2018-06-10T19:23:44.956Z,9.03
2018-06-10T19:26:13.309Z,12.20
2018-06-10T19:28:41.646Z,10.57
2018-06-10T19:31:10.004Z,9.43
2018-06-10T19:33:38.336Z,7.70
2018-06-10T19:36:06.686Z,9.80
2018-06-10T19:38:35.028Z,13.10
2018-06-10T19:41:03.373Z,13.93
2018-06-10T19:43:31.712Z,15.97
2018-06-10T19:46:00.188Z,17.50
2018-06-10T19:48:28.444Z,14.17
2018-06-10T19:50:56.777Z,12.75
2018-06-10T19:53:25.179Z,8.57
2018-06-10T19:55:53.517Z,10.25
2018-06-10T19:58:21.875Z,13.68
2018-06-10T20:00:50.213Z,18.73
2018-06-10T20:03:18.288Z,14.70
2018-06-10T20:05:46.641Z,14.85
2018-06-10T20:08:14.989Z,17.95
2018-06-10T20:10:43.353Z,16.65
2018-06-10T20:13:11.808Z,13.15
2018-06-10T20:15:40.150Z,14.78
2018-06-10T20:18:08.751Z,14.23
2018-06-10T20:20:37.082Z,16.85
2018-06-10T20:23:05.450Z,19.25
2018-06-10T20:25:33.790Z,15.53
2018-06-10T20:28:02.158Z,16.57
2018-06-10T20:30:30.562Z,16.30
2018-06-10T20:32:58.865Z,18.85
2018-06-10T20:35:27.549Z,15.90
2018-06-10T20:37:57.888Z,14.25
2018-06-10T20:40:26.226Z,12.33
2018-06-10T20:42:54.579Z,14.38
2018-06-10T20:45:22.941Z,13.65
2018-06-10T20:47:51.292Z,12.98
2018-06-10T20:50:19.352Z,12.40
2018-06-10T20:52:47.717Z,12.37
2018-06-10T20:55:16.045Z,14.33
2018-06-10T20:57:44.380Z,13.53
2018-06-10T21:00:12.746Z,10.88
2018-06-10T21:02:41.101Z,14.25
2018-06-10T21:05:09.433Z,11.35
2018-06-10T21:07:37.786Z,15.93
2018-06-10T21:10:06.141Z,12.05
2018-06-10T21:12:34.510Z,12.95
2018-06-10T21:15:02.828Z,13.00
2018-06-10T21:17:31.189Z,13.10
2018-06-10T21:19:59.510Z,14.13
2018-06-10T21:22:27.849Z,17.05
2018-06-10T21:24:56.177Z,20.62
2018-06-10T21:27:24.504Z,11.33
2018-06-10T21:29:52.820Z,10.35
2018-06-10T21:32:21.192Z,13.95
2018-06-10T21:34:49.509Z,16.45
2018-06-10T21:37:17.848Z,12.82
2018-06-10T21:39:46.168Z,12.98
2018-06-10T21:42:14.512Z,11.15
2018-06-10T21:44:42.832Z,12.80
2018-06-10T21:47:11.156Z,8.60
2018-06-10T21:49:39.488Z,12.18
2018-06-10T21:52:07.824Z,14.00
2018-06-10T21:54:36.134Z,14.45
2018-06-10T21:57:04.515Z,11.63
2018-06-10T21:59:32.865Z,19.90
2018-06-10T22:02:01.165Z,12.10
2018-06-10T22:04:29.541Z,15.75
2018-06-10T22:06:57.841Z,13.75
2018-06-10T22:09:26.173Z,15.53
2018-06-10T22:11:54.486Z,17.17
2018-06-10T22:14:22.813Z,17.07
2018-06-10T22:16:51.152Z,13.40
2018-06-10T22:19:19.496Z,14.28
2018-06-10T22:21:47.819Z,15.65
2018-06-10T22:24:16.149Z,18.15
2018-06-10T22:26:44.528Z,19.07
2018-06-10T22:29:12.862Z,12.18
2018-06-10T22:31:41.189Z,16.30
2018-06-10T22:34:09.521Z,15.25
2018-06-10T22:36:37.850Z,17.00
2018-06-10T22:39:07.990Z,19.10
2018-06-10T22:41:36.397Z,18.85
2018-06-10T22:44:04.758Z,20.52
2018-06-10T22:46:33.080Z,18.80
2018-06-10T22:49:01.460Z,19.35
2018-06-10T22:51:29.764Z,22.67
2018-06-10T22:54:09.350Z,26.80
2018-06-10T22:56:37.929Z,22.37
2018-06-10T22:59:06.306Z,13.70
2018-06-10T23:01:34.640Z,16.30
2018-06-10T23:04:02.963Z,15.63
2018-06-10T23:06:31.305Z,20.17
2018-06-10T23:08:59.833Z,14.20
2018-06-10T23:11:28.226Z,13.90
2018-06-10T23:13:56.596Z,16.55
2018-06-10T23:16:24.974Z,15.28
2018-06-10T23:18:53.398Z,18.48
2018-06-10T23:21:22.042Z,17.90
2018-06-10T23:23:50.457Z,13.85
2018-06-10T23:26:19.109Z,20.40
2018-06-10T23:28:47.488Z,14.98
2018-06-10T23:31:15.863Z,19.95
2018-06-10T23:33:44.414Z,14.65
2018-06-10T23:36:12.841Z,14.25
2018-06-10T23:38:41.193Z,19.23
2018-06-10T23:41:09.731Z,15.13
2018-06-10T23:43:38.183Z,14.00
2018-06-10T23:46:06.761Z,16.77
2018-06-10T23:48:35.141Z,19.37
2018-06-10T23:51:03.557Z,23.40
2018-06-10T23:53:32.012Z,21.87
2018-06-10T23:56:00.625Z,17.67
2018-06-10T23:58:29.171Z,18.25
